Ct Longford — 9HYM9 — position and weather

sailwx.info

Track history (hours):
 
Tides and Currents Weather Stations Pressure Air Temp Water Temp Dewpoint Dewpoint Depression Visibility Wind Speed Wind Dir Waves Ship Positions

Ct Longford

Last reported at 2017-Apr-29 09:37 UTC. Time now 2017-Apr-30 22:44 UTC.
Position N 36°28' E 023°24'.

Length 117 m; draft 5.8 m.

Type: Tanker. MMSI: 249706000.

Date/timePositionNaut miles runAvg speedWind from/ knotsBaromVisibWave heightAir tempDewpointWater temp
2017-Apr-29 09:37N 36°28' E 023°24'110.5
2017-Apr-29 09:29N 36°29' E 023°26'510.4
2017-Apr-29 09:00N 36°30' E 023°31'510.2
2017-Apr-29 08:30N 36°35' E 023°35'5 9.4
2017-Apr-29 08:00N 36°39' E 023°38'4 9.0
2017-Apr-29 07:30N 36°43' E 023°41'510.9
2017-Apr-29 07:00N 36°48' E 023°44'611.0
2017-Apr-29 06:30N 36°53' E 023°46'611.1
2017-Apr-29 06:00N 36°58' E 023°49'611.1
2017-Apr-29 05:30N 37°03' E 023°52'511.0
2017-Apr-29 05:00N 37°08' E 023°55'611.1
2017-Apr-29 04:30N 37°13' E 023°58'510.9
2017-Apr-29 04:00N 37°18' E 023°60'510.8
2017-Apr-29 03:30N 37°23' E 024°02'510.6
2017-Apr-29 03:00N 37°28' E 024°05'510.6
2017-Apr-29 02:30N 37°33' E 024°07'1010.8
2017-Apr-29 01:34N 37°42' E 024°12'110.9
2017-Apr-29 01:30N 37°43' E 024°13'510.6
2017-Apr-29 01:00N 37°47' E 024°18'610.9
2017-Apr-29 00:30N 37°49' E 024°24'511.0
2017-Apr-29 00:00N 37°52' E 024°30'610.5
2017-Apr-28 23:27N 37°56' E 024°35'12310.6
2017-Apr-28 11:48N 39°46' E 025°47'310.8
2017-Apr-28 11:30N 39°49' E 025°49'710.5
2017-Apr-28 10:47N 39°55' E 025°53'310.5
2017-Apr-28 10:30N 39°58' E 025°55'14310.1
2017-Apr-27 20:23N 40°55' E 028°47'4 7.3
2017-Apr-27 19:51N 40°57' E 028°52'0 0.0
2017-Apr-27 18:45N 40°57' E 028°52'0 0.0
2017-Apr-27 18:27N 40°57' E 028°52'0 0.0
2017-Apr-27 17:57N 40°57' E 028°52'0 0.0
2017-Apr-27 17:03N 40°57' E 028°52'0 0.1
2017-Apr-27 16:45N 40°57' E 028°52'0 0.2
2017-Apr-27 16:27N 40°57' E 028°52'2 0.1
2017-Apr-26 21:12N 40°56' E 028°54'3 7.3
2017-Apr-26 20:51N 40°55' E 028°57'3 7.2
2017-Apr-26 20:27N 40°54' E 029°01'4 8.1
2017-Apr-26 20:00N 40°51' E 029°04'4 7.2
2017-Apr-26 19:30N 40°49' E 029°08'4 7.7
2017-Apr-26 19:00N 40°51' E 029°12'3 6.2
2017-Apr-26 18:30N 40°51' E 029°16'1 1.6
2017-Apr-26 17:52N 40°50' E 029°17'0 0.0
2017-Apr-26 17:28N 40°50' E 029°17'0 0.0
2017-Apr-26 16:58N 40°50' E 029°17'0 0.0
2017-Apr-26 16:28N 40°50' E 029°17'0 0.0
2017-Apr-26 15:58N 40°50' E 029°17'0 0.0
2017-Apr-26 15:28N 40°50' E 029°17'0 0.0
2017-Apr-26 14:58N 40°50' E 029°17'0 0.0
2017-Apr-26 14:28N 40°50' E 029°17'0 0.0
2017-Apr-26 13:28N 40°50' E 029°17'0 0.0
2017-Apr-26 12:58N 40°50' E 029°17'0 0.0
2017-Apr-26 12:28N 40°50' E 029°17'0 0.0
2017-Apr-26 11:58N 40°50' E 029°17'0 0.0
2017-Apr-26 11:28N 40°50' E 029°17'0 0.0
2017-Apr-26 10:58N 40°50' E 029°17'0 0.0
2017-Apr-26 10:16N 40°50' E 029°17'0 0.0
2017-Apr-26 09:58N 40°50' E 029°17'0 0.0
2017-Apr-26 09:28N 40°50' E 029°17'0 0.0
2017-Apr-26 08:58N 40°50' E 029°17'0 0.0
2017-Apr-26 08:28N 40°50' E 029°17'0 0.0
2017-Apr-26 07:58N 40°50' E 029°17'0 0.0
2017-Apr-26 07:28N 40°50' E 029°17'0 0.0
2017-Apr-26 06:58N 40°50' E 029°17'0 0.0
2017-Apr-26 06:28N 40°50' E 029°17'0 0.0
2017-Apr-26 05:58N 40°50' E 029°17'0 0.0
2017-Apr-26 05:28N 40°50' E 029°17'0 0.0
2017-Apr-26 04:58N 40°50' E 029°17'0 0.0
2017-Apr-26 04:22N 40°50' E 029°17'0 0.0
2017-Apr-26 03:58N 40°50' E 029°17'0 0.0
2017-Apr-26 03:28N 40°50' E 029°17'0 0.0
2017-Apr-26 02:58N 40°50' E 029°17'0 0.0
2017-Apr-26 02:28N 40°50' E 029°17'0 0.0
2017-Apr-26 01:58N 40°50' E 029°17'0 0.0
2017-Apr-26 01:28N 40°50' E 029°17'0 0.0
2017-Apr-26 00:52N 40°50' E 029°17'0 0.0
2017-Apr-26 00:28N 40°50' E 029°17'0 0.0
2017-Apr-25 23:58N 40°50' E 029°17'0 0.0
2017-Apr-25 23:28N 40°50' E 029°17'0 0.0
2017-Apr-25 22:58N 40°50' E 029°17'0 0.0
2017-Apr-25 22:22N 40°50' E 029°17'0 0.0
2017-Apr-25 21:58N 40°50' E 029°17'0 0.0
2017-Apr-25 21:28N 40°50' E 029°17'0 0.0
2017-Apr-25 20:52N 40°50' E 029°17'0 0.0
2017-Apr-25 20:28N 40°50' E 029°17'0 0.0
2017-Apr-25 19:58N 40°50' E 029°17'0 0.0
2017-Apr-25 19:28N 40°50' E 029°17'0 0.0
2017-Apr-25 18:58N 40°50' E 029°17'0 0.0
2017-Apr-25 18:28N 40°50' E 029°17'0 0.0
2017-Apr-25 17:58N 40°50' E 029°17'0 0.0
2017-Apr-25 17:28N 40°50' E 029°17'0 0.0
2017-Apr-25 16:58N 40°50' E 029°17'0 0.0
2017-Apr-25 16:28N 40°50' E 029°17'0 0.0
2017-Apr-25 15:58N 40°50' E 029°17'0 0.0
2017-Apr-25 15:28N 40°50' E 029°17'0 0.0
2017-Apr-25 14:58N 40°50' E 029°17'0 0.0
2017-Apr-25 13:52N 40°50' E 029°17'0 0.0
2017-Apr-25 13:28N 40°50' E 029°17'0 0.0
2017-Apr-25 12:58N 40°50' E 029°17'0 0.0
2017-Apr-25 12:28N 40°50' E 029°17'0 0.0
2017-Apr-25 11:58N 40°50' E 029°17'0 0.0
2017-Apr-25 11:28N 40°50' E 029°17'0 0.0
2017-Apr-25 10:58N 40°50' E 029°17'0 0.0
2017-Apr-25 10:28N 40°50' E 029°17'0 0.0
2017-Apr-25 09:58N 40°50' E 029°17'0 0.0
2017-Apr-25 09:28N 40°50' E 029°17'0 0.0
2017-Apr-25 08:58N 40°50' E 029°17'0 0.0
2017-Apr-25 08:28N 40°50' E 029°17'0 0.0
2017-Apr-25 07:58N 40°50' E 029°17'0 0.0
2017-Apr-25 07:28N 40°50' E 029°17'0 0.0
2017-Apr-25 06:58N 40°50' E 029°17'0 0.0
2017-Apr-25 06:28N 40°50' E 029°17'0 0.0
2017-Apr-25 05:58N 40°50' E 029°17'0 0.0
2017-Apr-25 05:28N 40°50' E 029°17'0 0.0
2017-Apr-25 04:58N 40°50' E 029°17'0 0.0
2017-Apr-25 04:28N 40°50' E 029°17'0 0.0
2017-Apr-25 03:58N 40°50' E 029°17'0 0.0
2017-Apr-25 03:28N 40°50' E 029°17'0 0.0
2017-Apr-25 02:58N 40°50' E 029°17'0 0.0
2017-Apr-25 02:28N 40°50' E 029°17'0 0.0
2017-Apr-25 01:58N 40°50' E 029°17'0 0.0
2017-Apr-25 01:28N 40°50' E 029°17'0 0.0
2017-Apr-25 00:58N 40°50' E 029°17'0 0.0
2017-Apr-25 00:28N 40°50' E 029°17'0 0.0
2017-Apr-24 23:58N 40°50' E 029°17'0 0.0
2017-Apr-24 23:28N 40°50' E 029°17'0 0.0
2017-Apr-24 22:40N 40°50' E 029°17'0 0.0
2017-Apr-24 22:28N 40°50' E 029°17'0 0.0
2017-Apr-24 21:58N 40°50' E 029°17'0 0.0
2017-Apr-24 21:28N 40°50' E 029°17'0 0.0
2017-Apr-24 20:58N 40°50' E 029°17'0 0.0
2017-Apr-24 20:28N 40°50' E 029°17'0 0.0
2017-Apr-24 19:58N 40°50' E 029°17'0 0.0
2017-Apr-24 19:22N 40°50' E 029°17'0 0.0
2017-Apr-24 18:58N 40°50' E 029°17'0 0.0
2017-Apr-24 18:22N 40°50' E 029°17'0 0.0
2017-Apr-24 17:58N 40°50' E 029°17'0 0.0
2017-Apr-24 17:16N 40°50' E 029°17'0 0.0
2017-Apr-24 16:52N 40°50' E 029°17'0 0.0
2017-Apr-24 16:28N 40°50' E 029°17'0 0.0
2017-Apr-24 15:52N 40°50' E 029°17'0 0.0
2017-Apr-24 15:28N 40°50' E 029°17'0 0.0
2017-Apr-24 14:58N 40°50' E 029°17'0 0.0
2017-Apr-24 14:28N 40°50' E 029°17'0 0.0
2017-Apr-24 13:28N 40°50' E 029°17'0 0.0
2017-Apr-24 12:58N 40°50' E 029°17'0 0.0
2017-Apr-24 12:28N 40°50' E 029°17'0 0.0
2017-Apr-24 11:58N 40°50' E 029°17'0 0.0
2017-Apr-24 11:28N 40°50' E 029°17'0 0.0
2017-Apr-24 10:58N 40°50' E 029°17'0 0.0
2017-Apr-24 10:28N 40°50' E 029°17'0 0.0
2017-Apr-24 09:58N 40°50' E 029°17'0 0.0
2017-Apr-24 09:28N 40°50' E 029°17'0 0.0
2017-Apr-24 08:40N 40°50' E 029°17'0 0.0
2017-Apr-24 08:28N 40°50' E 029°17'0 0.0
2017-Apr-24 07:58N 40°50' E 029°17'0 0.0
2017-Apr-24 07:28N 40°50' E 029°17'0 0.0
2017-Apr-24 06:58N 40°50' E 029°17'0 0.0
2017-Apr-24 06:28N 40°50' E 029°17'0 0.0
2017-Apr-24 05:52N 40°50' E 029°17'0 0.0
2017-Apr-24 05:28N 40°50' E 029°17'0 0.0
2017-Apr-24 04:58N 40°50' E 029°17'0 0.0
2017-Apr-24 04:28N 40°50' E 029°17'0 0.0
2017-Apr-24 03:46N 40°50' E 029°17'0 0.0
2017-Apr-24 03:28N 40°50' E 029°17'0 0.0
2017-Apr-24 02:58N 40°50' E 029°17'0 0.0
2017-Apr-24 02:22N 40°50' E 029°17'0 0.0
2017-Apr-24 01:52N 40°50' E 029°17'0 0.0
2017-Apr-24 01:28N 40°50' E 029°17'0 0.0
2017-Apr-24 00:52N 40°50' E 029°17'0 0.0
2017-Apr-24 00:28N 40°50' E 029°17'0 0.0
2017-Apr-23 23:58N 40°50' E 029°17'0 0.0
2017-Apr-23 23:28N 40°50' E 029°17'0 0.0
2017-Apr-23 22:58N 40°50' E 029°17'0 0.0
2017-Apr-23 22:28N 40°50' E 029°17'0 0.0
2017-Apr-23 21:58N 40°50' E 029°17'0 0.0
2017-Apr-23 21:28N 40°50' E 029°17'0 0.0
2017-Apr-23 20:58N 40°50' E 029°17'0 0.0
2017-Apr-23 20:28N 40°50' E 029°17'0 0.0
2017-Apr-23 19:58N 40°50' E 029°17'0 0.0
2017-Apr-23 19:28N 40°50' E 029°17'0 0.0
2017-Apr-23 18:58N 40°50' E 029°17'0 0.0
2017-Apr-23 18:22N 40°50' E 029°17'0 0.0
2017-Apr-23 17:58N 40°50' E 029°17'0 0.0
2017-Apr-23 17:28N 40°50' E 029°17'0 0.0
2017-Apr-23 16:58N 40°50' E 029°17'0 0.0
2017-Apr-23 16:22N 40°50' E 029°17'0 0.0
2017-Apr-23 15:58N 40°50' E 029°17'0 0.0
2017-Apr-23 15:28N 40°50' E 029°17'0 0.0
2017-Apr-23 14:58N 40°50' E 029°17'0 0.0
2017-Apr-23 14:28N 40°50' E 029°17'0 0.0
2017-Apr-23 13:28N 40°50' E 029°17'0 0.0
2017-Apr-23 12:52N 40°50' E 029°17'0 0.0
2017-Apr-23 12:28N 40°50' E 029°17'0 0.0
2017-Apr-23 11:58N 40°50' E 029°17'0 0.0
2017-Apr-23 11:28N 40°50' E 029°17'0 0.0
2017-Apr-23 10:58N 40°50' E 029°17'0 0.0
2017-Apr-23 10:28N 40°50' E 029°17'0 0.0
2017-Apr-23 09:58N 40°50' E 029°17'0 0.0
2017-Apr-23 09:28N 40°50' E 029°17'0 0.0
2017-Apr-23 08:58N 40°50' E 029°17'0 0.0
2017-Apr-23 08:28N 40°50' E 029°17'0 0.0
2017-Apr-23 07:52N 40°50' E 029°17'0 0.0
2017-Apr-23 07:28N 40°50' E 029°17'0 0.0
2017-Apr-23 06:58N 40°50' E 029°17'0 0.0
2017-Apr-23 06:28N 40°50' E 029°17'0 0.0
2017-Apr-23 05:58N 40°50' E 029°17'0 0.0
2017-Apr-23 05:16N 40°50' E 029°17'0 0.0
2017-Apr-23 04:58N 40°50' E 029°17'0 0.0
2017-Apr-23 04:28N 40°50' E 029°17'0 0.0
2017-Apr-23 03:58N 40°50' E 029°17'0 0.0
2017-Apr-23 03:28N 40°50' E 029°17'0 0.0
2017-Apr-23 02:52N 40°50' E 029°17'0 0.0
2017-Apr-23 02:28N 40°50' E 029°17'0 0.0
2017-Apr-23 01:58N 40°50' E 029°17'0 0.0
2017-Apr-23 01:28N 40°50' E 029°17'0 0.0
2017-Apr-23 00:52N 40°50' E 029°17'0 0.0
2017-Apr-23 00:28N 40°50' E 029°17'0 0.0
2017-Apr-22 23:58N 40°50' E 029°17'0 0.0
2017-Apr-22 23:28N 40°50' E 029°17'0 0.0
2017-Apr-22 22:58N 40°50' E 029°17'0 0.0
2017-Apr-22 22:28N 40°50' E 029°17'0 0.0
2017-Apr-22 21:58N 40°50' E 029°17'0 0.0
2017-Apr-22 21:28N 40°50' E 029°17'0 0.0
2017-Apr-22 20:58N 40°50' E 029°17'0 0.0
2017-Apr-22 20:22N 40°50' E 029°17'0 0.0
2017-Apr-22 19:58N 40°50' E 029°17'0 0.0
2017-Apr-22 19:28N 40°50' E 029°17'0 0.0
2017-Apr-22 18:58N 40°50' E 029°17'0 0.0
2017-Apr-22 18:28N 40°50' E 029°17'0 0.0
2017-Apr-22 17:58N 40°50' E 029°17'0 0.0
2017-Apr-22 17:25N 40°50' E 029°17'0 0.0
2017-Apr-22 16:55N 40°50' E 029°17'0 0.0
2017-Apr-22 16:19N 40°50' E 029°17'0 0.0
2017-Apr-22 15:58N 40°50' E 029°17'0 0.0
2017-Apr-22 15:28N 40°50' E 029°17'0 0.0
2017-Apr-22 14:58N 40°50' E 029°17'0 0.0
2017-Apr-22 14:28N 40°50' E 029°17'0 0.0
2017-Apr-22 13:25N 40°50' E 029°17'0 0.0
2017-Apr-22 12:55N 40°50' E 029°17'0 0.0
2017-Apr-22 12:19N 40°50' E 029°17'0 0.0
2017-Apr-22 11:49N 40°50' E 029°17'0 0.0
2017-Apr-22 11:25N 40°50' E 029°17'0 0.0
2017-Apr-22 10:49N 40°50' E 029°17'0 0.0
2017-Apr-22 10:19N 40°50' E 029°17'0 0.0
2017-Apr-22 09:55N 40°50' E 029°17'0 0.0
2017-Apr-22 09:25N 40°50' E 029°17'0 0.0
2017-Apr-22 08:55N 40°50' E 029°17'0 0.0
2017-Apr-22 08:25N 40°50' E 029°17'0 0.0
2017-Apr-22 07:55N 40°50' E 029°17'0 0.0
2017-Apr-22 07:07N 40°50' E 029°17'0 0.0
2017-Apr-22 06:55N 40°50' E 029°17'0 0.0
2017-Apr-22 06:25N 40°50' E 029°17'0 0.0
2017-Apr-22 05:55N 40°50' E 029°17'0 0.0
2017-Apr-22 05:25N 40°50' E 029°17'0 0.0
2017-Apr-22 04:55N 40°50' E 029°17'0 0.0
2017-Apr-22 04:19N 40°50' E 029°17'0 0.0
2017-Apr-22 03:55N 40°50' E 029°17'0 0.0
2017-Apr-22 03:19N 40°50' E 029°17'0 0.0
2017-Apr-22 02:49N 40°50' E 029°17'0 0.0
2017-Apr-22 02:19N 40°50' E 029°17'0 0.0
2017-Apr-22 01:55N 40°50' E 029°17'0 0.0
2017-Apr-22 01:25N 40°50' E 029°17'0 0.0
2017-Apr-22 00:55N 40°50' E 029°17'0 0.0
2017-Apr-22 00:25N 40°50' E 029°17'0 0.0
2017-Apr-21 23:55N 40°50' E 029°17'0 0.0
2017-Apr-21 23:19N 40°50' E 029°17'0 0.0
2017-Apr-21 22:55N 40°50' E 029°17'0 0.0
2017-Apr-21 22:25N 40°50' E 029°17'0 0.0
2017-Apr-21 21:49N 40°50' E 029°17'0 0.0
2017-Apr-21 21:25N 40°50' E 029°17'0 0.0
2017-Apr-21 20:55N 40°50' E 029°17'0 0.0
2017-Apr-21 20:25N 40°50' E 029°17'0 0.0
2017-Apr-21 19:55N 40°50' E 029°17'0 0.0
2017-Apr-21 19:25N 40°50' E 029°17'0 0.0
2017-Apr-21 18:55N 40°50' E 029°17'0 0.0
2017-Apr-21 18:25N 40°50' E 029°17'0 0.0
2017-Apr-21 17:55N 40°50' E 029°17'0 0.0
2017-Apr-21 17:25N 40°50' E 029°17'0 0.0
2017-Apr-21 16:55N 40°50' E 029°17'0 0.0
2017-Apr-21 16:25N 40°50' E 029°17'0 0.0
2017-Apr-21 15:55N 40°50' E 029°17'0 0.0
2017-Apr-21 15:25N 40°50' E 029°17'0 0.0
2017-Apr-21 14:55N 40°50' E 029°17'0 0.0
2017-Apr-21 14:25N 40°50' E 029°17'0 0.0
2017-Apr-21 13:25N 40°50' E 029°17'0 0.0
2017-Apr-21 12:55N 40°50' E 029°17'0 0.0
2017-Apr-21 12:25N 40°50' E 029°17'0 0.0
2017-Apr-21 11:55N 40°50' E 029°17'0 0.0
2017-Apr-21 11:25N 40°50' E 029°17'0 0.0
2017-Apr-21 10:49N 40°50' E 029°17'0 0.0
2017-Apr-21 10:25N 40°50' E 029°17'0 0.0
2017-Apr-21 09:49N 40°50' E 029°17'0 0.0
2017-Apr-21 09:25N 40°50' E 029°17'0 0.0
2017-Apr-21 08:55N 40°50' E 029°17'0 0.0
2017-Apr-21 08:25N 40°50' E 029°17'0 0.0
2017-Apr-21 07:49N 40°50' E 029°17'0 0.0
2017-Apr-21 07:25N 40°50' E 029°17'0 0.0
2017-Apr-21 06:55N 40°50' E 029°17'0 0.0
2017-Apr-21 06:25N 40°50' E 029°17'0 0.0
2017-Apr-21 05:55N 40°50' E 029°17'0 0.0
2017-Apr-21 05:25N 40°50' E 029°17'0 0.0
2017-Apr-21 04:55N 40°50' E 029°17'0 0.0
2017-Apr-21 04:25N 40°50' E 029°17'0 0.0
2017-Apr-21 03:55N 40°50' E 029°17'0 0.0
2017-Apr-21 03:25N 40°50' E 029°17'0 0.0
2017-Apr-21 02:49N 40°50' E 029°17'0 0.0
2017-Apr-21 02:19N 40°50' E 029°17'0 0.0
2017-Apr-21 01:55N 40°50' E 029°17'0 0.0
2017-Apr-21 01:25N 40°50' E 029°17'0 0.0
2017-Apr-21 00:55N 40°50' E 029°17'0 0.0
2017-Apr-21 00:25N 40°50' E 029°17'0 0.0
2017-Apr-20 23:55N 40°50' E 029°17'0 0.0
2017-Apr-20 23:25N 40°50' E 029°17'0 0.0
2017-Apr-20 22:55N 40°50' E 029°17'0 0.0
2017-Apr-20 22:25N 40°50' E 029°17'0 0.0
2017-Apr-20 21:49N 40°50' E 029°17'0 0.0
2017-Apr-20 21:25N 40°50' E 029°17'0 0.0
2017-Apr-20 20:55N 40°50' E 029°17'0 0.0
2017-Apr-20 20:25N 40°50' E 029°17'0 0.0
2017-Apr-20 19:55N 40°50' E 029°17'0 0.0
2017-Apr-20 19:13N 40°50' E 029°17'0 0.0
2017-Apr-20 18:55N 40°50' E 029°17'0 0.0
2017-Apr-20 18:25N 40°50' E 029°17'0 0.0
2017-Apr-20 17:55N 40°50' E 029°17'0 0.0
2017-Apr-20 17:19N 40°50' E 029°17'0 0.0
2017-Apr-20 16:55N 40°50' E 029°17'0 0.0
2017-Apr-20 16:25N 40°50' E 029°17'0 0.0
2017-Apr-20 15:55N 40°50' E 029°17'0 0.0
2017-Apr-20 15:25N 40°50' E 029°17'0 0.0
2017-Apr-20 14:55N 40°50' E 029°17'0 0.0
2017-Apr-20 13:55N 40°50' E 029°17'0 0.0
2017-Apr-20 13:25N 40°50' E 029°17'0 0.0
2017-Apr-20 12:55N 40°50' E 029°17'0 0.0
2017-Apr-20 12:25N 40°50' E 029°17'0 0.0
2017-Apr-20 11:55N 40°50' E 029°17'0 0.0
2017-Apr-20 11:25N 40°50' E 029°17'0 0.0
2017-Apr-20 10:55N 40°50' E 029°17'0 0.0
2017-Apr-20 10:25N 40°50' E 029°17'0 0.0
2017-Apr-20 09:55N 40°50' E 029°17'0 0.0
2017-Apr-20 09:25N 40°50' E 029°17'0 0.0
2017-Apr-20 08:55N 40°50' E 029°17'0 0.0
2017-Apr-20 08:25N 40°50' E 029°17'0 0.0
2017-Apr-20 07:55N 40°50' E 029°17'0 0.0
2017-Apr-20 07:25N 40°50' E 029°17'0 0.0
2017-Apr-20 06:55N 40°50' E 029°17'0 0.0
2017-Apr-20 06:25N 40°50' E 029°17'0 0.0
2017-Apr-20 05:55N 40°50' E 029°17'0 0.0
2017-Apr-20 05:25N 40°50' E 029°17'0 0.0
2017-Apr-20 04:55N 40°50' E 029°17'0 0.0
2017-Apr-20 04:25N 40°50' E 029°17'0 0.0
2017-Apr-20 03:55N 40°50' E 029°17'0 0.0
2017-Apr-20 03:25N 40°50' E 029°17'0 0.0
2017-Apr-20 02:55N 40°50' E 029°17'0 0.0
2017-Apr-20 02:25N 40°50' E 029°17'0 0.0
2017-Apr-20 01:55N 40°50' E 029°17'0 0.0
2017-Apr-20 01:25N 40°50' E 029°17'0 0.0
2017-Apr-20 00:55N 40°50' E 029°17'0 0.0
2017-Apr-20 00:25N 40°50' E 029°17'0 0.0
2017-Apr-19 23:55N 40°50' E 029°17'0 0.0
2017-Apr-19 23:25N 40°50' E 029°17'0 0.0
2017-Apr-19 22:55N 40°50' E 029°17'0 0.0
2017-Apr-19 22:25N 40°50' E 029°17'0 0.0
2017-Apr-19 21:55N 40°50' E 029°17'0 0.0
2017-Apr-19 21:25N 40°50' E 029°17'0 0.0
2017-Apr-19 20:55N 40°50' E 029°17'0 0.0
2017-Apr-19 20:25N 40°50' E 029°17'0 0.0
2017-Apr-19 19:55N 40°50' E 029°17'0 0.0
2017-Apr-19 19:25N 40°50' E 029°17'0 0.0
2017-Apr-19 18:49N 40°50' E 029°17'0 0.0
2017-Apr-19 18:07N 40°50' E 029°17'0 0.0
2017-Apr-19 17:55N 40°50' E 029°17'0 0.0
2017-Apr-19 17:25N 40°50' E 029°17'0 0.0
2017-Apr-19 16:49N 40°50' E 029°17'0 0.0
2017-Apr-19 16:25N 40°50' E 029°17'0 0.0
2017-Apr-19 15:55N 40°50' E 029°17'0 0.0
2017-Apr-19 15:25N 40°50' E 029°17'0 0.0
2017-Apr-19 14:55N 40°50' E 029°17'0 0.0
2017-Apr-19 14:25N 40°50' E 029°17'0 0.0
2017-Apr-19 13:25N 40°50' E 029°17'0 0.0
2017-Apr-19 12:55N 40°50' E 029°17'0 0.0
2017-Apr-19 12:25N 40°50' E 029°17'0 0.0
2017-Apr-19 11:55N 40°50' E 029°17'0 0.0
2017-Apr-19 11:25N 40°50' E 029°17'0 0.0
2017-Apr-19 10:49N 40°50' E 029°17'0 0.0
2017-Apr-19 10:13N 40°50' E 029°17'0 0.0
2017-Apr-19 09:55N 40°50' E 029°17'  
Track history (hours):
 
Tides and Currents Weather Stations Pressure Air Temp Water Temp Dewpoint Dewpoint Depression Visibility Wind Speed Wind Dir Waves Ship Positions

Ct Longford

Last reported at 2017-Apr-29 09:37 UTC. Time now 2017-Apr-30 22:44 UTC.
Position N 36°28' E 023°24'.

Length 117 m; draft 5.8 m.

Type: Tanker. MMSI: 249706000.

Date/timePositionNaut miles runAvg speedWind from/ knotsBaromVisibWave heightAir tempDewpointWater temp
2017-Apr-29 09:37N 36°28' E 023°24'110.5
2017-Apr-29 09:29N 36°29' E 023°26'510.4
2017-Apr-29 09:00N 36°30' E 023°31'510.2
2017-Apr-29 08:30N 36°35' E 023°35'5 9.4
2017-Apr-29 08:00N 36°39' E 023°38'4 9.0
2017-Apr-29 07:30N 36°43' E 023°41'510.9
2017-Apr-29 07:00N 36°48' E 023°44'611.0
2017-Apr-29 06:30N 36°53' E 023°46'611.1
2017-Apr-29 06:00N 36°58' E 023°49'611.1
2017-Apr-29 05:30N 37°03' E 023°52'511.0
2017-Apr-29 05:00N 37°08' E 023°55'611.1
2017-Apr-29 04:30N 37°13' E 023°58'510.9
2017-Apr-29 04:00N 37°18' E 023°60'510.8
2017-Apr-29 03:30N 37°23' E 024°02'510.6
2017-Apr-29 03:00N 37°28' E 024°05'510.6
2017-Apr-29 02:30N 37°33' E 024°07'1010.8
2017-Apr-29 01:34N 37°42' E 024°12'110.9
2017-Apr-29 01:30N 37°43' E 024°13'510.6
2017-Apr-29 01:00N 37°47' E 024°18'610.9
2017-Apr-29 00:30N 37°49' E 024°24'511.0
2017-Apr-29 00:00N 37°52' E 024°30'610.5
2017-Apr-28 23:27N 37°56' E 024°35'12310.6
2017-Apr-28 11:48N 39°46' E 025°47'310.8
2017-Apr-28 11:30N 39°49' E 025°49'710.5
2017-Apr-28 10:47N 39°55' E 025°53'310.5
2017-Apr-28 10:30N 39°58' E 025°55'14310.1
2017-Apr-27 20:23N 40°55' E 028°47'4 7.3
2017-Apr-27 19:51N 40°57' E 028°52'0 0.0
2017-Apr-27 18:45N 40°57' E 028°52'0 0.0
2017-Apr-27 18:27N 40°57' E 028°52'0 0.0
2017-Apr-27 17:57N 40°57' E 028°52'0 0.0
2017-Apr-27 17:03N 40°57' E 028°52'0 0.1
2017-Apr-27 16:45N 40°57' E 028°52'0 0.2
2017-Apr-27 16:27N 40°57' E 028°52'2 0.1
2017-Apr-26 21:12N 40°56' E 028°54'3 7.3
2017-Apr-26 20:51N 40°55' E 028°57'3 7.2
2017-Apr-26 20:27N 40°54' E 029°01'4 8.1
2017-Apr-26 20:00N 40°51' E 029°04'4 7.2
2017-Apr-26 19:30N 40°49' E 029°08'4 7.7
2017-Apr-26 19:00N 40°51' E 029°12'3 6.2
2017-Apr-26 18:30N 40°51' E 029°16'1 1.6
2017-Apr-26 17:52N 40°50' E 029°17'0 0.0
2017-Apr-26 17:28N 40°50' E 029°17'0 0.0
2017-Apr-26 16:58N 40°50' E 029°17'0 0.0
2017-Apr-26 16:28N 40°50' E 029°17'0 0.0
2017-Apr-26 15:58N 40°50' E 029°17'0 0.0
2017-Apr-26 15:28N 40°50' E 029°17'0 0.0
2017-Apr-26 14:58N 40°50' E 029°17'0 0.0
2017-Apr-26 14:28N 40°50' E 029°17'0 0.0
2017-Apr-26 13:28N 40°50' E 029°17'0 0.0
2017-Apr-26 12:58N 40°50' E 029°17'0 0.0
2017-Apr-26 12:28N 40°50' E 029°17'0 0.0
2017-Apr-26 11:58N 40°50' E 029°17'0 0.0
2017-Apr-26 11:28N 40°50' E 029°17'0 0.0
2017-Apr-26 10:58N 40°50' E 029°17'0 0.0
2017-Apr-26 10:16N 40°50' E 029°17'0 0.0
2017-Apr-26 09:58N 40°50' E 029°17'0 0.0
2017-Apr-26 09:28N 40°50' E 029°17'0 0.0
2017-Apr-26 08:58N 40°50' E 029°17'0 0.0
2017-Apr-26 08:28N 40°50' E 029°17'0 0.0
2017-Apr-26 07:58N 40°50' E 029°17'0 0.0
2017-Apr-26 07:28N 40°50' E 029°17'0 0.0
2017-Apr-26 06:58N 40°50' E 029°17'0 0.0
2017-Apr-26 06:28N 40°50' E 029°17'0 0.0
2017-Apr-26 05:58N 40°50' E 029°17'0 0.0
2017-Apr-26 05:28N 40°50' E 029°17'0 0.0
2017-Apr-26 04:58N 40°50' E 029°17'0 0.0
2017-Apr-26 04:22N 40°50' E 029°17'0 0.0
2017-Apr-26 03:58N 40°50' E 029°17'0 0.0
2017-Apr-26 03:28N 40°50' E 029°17'0 0.0
2017-Apr-26 02:58N 40°50' E 029°17'0 0.0
2017-Apr-26 02:28N 40°50' E 029°17'0 0.0
2017-Apr-26 01:58N 40°50' E 029°17'0 0.0
2017-Apr-26 01:28N 40°50' E 029°17'0 0.0
2017-Apr-26 00:52N 40°50' E 029°17'0 0.0
2017-Apr-26 00:28N 40°50' E 029°17'0 0.0
2017-Apr-25 23:58N 40°50' E 029°17'0 0.0
2017-Apr-25 23:28N 40°50' E 029°17'0 0.0
2017-Apr-25 22:58N 40°50' E 029°17'0 0.0
2017-Apr-25 22:22N 40°50' E 029°17'0 0.0
2017-Apr-25 21:58N 40°50' E 029°17'0 0.0
2017-Apr-25 21:28N 40°50' E 029°17'0 0.0
2017-Apr-25 20:52N 40°50' E 029°17'0 0.0
2017-Apr-25 20:28N 40°50' E 029°17'0 0.0
2017-Apr-25 19:58N 40°50' E 029°17'0 0.0
2017-Apr-25 19:28N 40°50' E 029°17'0 0.0
2017-Apr-25 18:58N 40°50' E 029°17'0 0.0
2017-Apr-25 18:28N 40°50' E 029°17'0 0.0
2017-Apr-25 17:58N 40°50' E 029°17'0 0.0
2017-Apr-25 17:28N 40°50' E 029°17'0 0.0
2017-Apr-25 16:58N 40°50' E 029°17'0 0.0
2017-Apr-25 16:28N 40°50' E 029°17'0 0.0
2017-Apr-25 15:58N 40°50' E 029°17'0 0.0
2017-Apr-25 15:28N 40°50' E 029°17'0 0.0
2017-Apr-25 14:58N 40°50' E 029°17'0 0.0
2017-Apr-25 13:52N 40°50' E 029°17'0 0.0
2017-Apr-25 13:28N 40°50' E 029°17'0 0.0
2017-Apr-25 12:58N 40°50' E 029°17'0 0.0
2017-Apr-25 12:28N 40°50' E 029°17'0 0.0
2017-Apr-25 11:58N 40°50' E 029°17'0 0.0
2017-Apr-25 11:28N 40°50' E 029°17'0 0.0
2017-Apr-25 10:58N 40°50' E 029°17'0 0.0
2017-Apr-25 10:28N 40°50' E 029°17'0 0.0
2017-Apr-25 09:58N 40°50' E 029°17'0 0.0
2017-Apr-25 09:28N 40°50' E 029°17'0 0.0
2017-Apr-25 08:58N 40°50' E 029°17'0 0.0
2017-Apr-25 08:28N 40°50' E 029°17'0 0.0
2017-Apr-25 07:58N 40°50' E 029°17'0 0.0
2017-Apr-25 07:28N 40°50' E 029°17'0 0.0
2017-Apr-25 06:58N 40°50' E 029°17'0 0.0
2017-Apr-25 06:28N 40°50' E 029°17'0 0.0
2017-Apr-25 05:58N 40°50' E 029°17'0 0.0
2017-Apr-25 05:28N 40°50' E 029°17'0 0.0
2017-Apr-25 04:58N 40°50' E 029°17'0 0.0
2017-Apr-25 04:28N 40°50' E 029°17'0 0.0
2017-Apr-25 03:58N 40°50' E 029°17'0 0.0
2017-Apr-25 03:28N 40°50' E 029°17'0 0.0
2017-Apr-25 02:58N 40°50' E 029°17'0 0.0
2017-Apr-25 02:28N 40°50' E 029°17'0 0.0
2017-Apr-25 01:58N 40°50' E 029°17'0 0.0
2017-Apr-25 01:28N 40°50' E 029°17'0 0.0
2017-Apr-25 00:58N 40°50' E 029°17'0 0.0
2017-Apr-25 00:28N 40°50' E 029°17'0 0.0
2017-Apr-24 23:58N 40°50' E 029°17'0 0.0
2017-Apr-24 23:28N 40°50' E 029°17'0 0.0
2017-Apr-24 22:40N 40°50' E 029°17'0 0.0
2017-Apr-24 22:28N 40°50' E 029°17'0 0.0
2017-Apr-24 21:58N 40°50' E 029°17'0 0.0
2017-Apr-24 21:28N 40°50' E 029°17'0 0.0
2017-Apr-24 20:58N 40°50' E 029°17'0 0.0
2017-Apr-24 20:28N 40°50' E 029°17'0 0.0
2017-Apr-24 19:58N 40°50' E 029°17'0 0.0
2017-Apr-24 19:22N 40°50' E 029°17'0 0.0
2017-Apr-24 18:58N 40°50' E 029°17'0 0.0
2017-Apr-24 18:22N 40°50' E 029°17'0 0.0
2017-Apr-24 17:58N 40°50' E 029°17'0 0.0
2017-Apr-24 17:16N 40°50' E 029°17'0 0.0
2017-Apr-24 16:52N 40°50' E 029°17'0 0.0
2017-Apr-24 16:28N 40°50' E 029°17'0 0.0
2017-Apr-24 15:52N 40°50' E 029°17'0 0.0
2017-Apr-24 15:28N 40°50' E 029°17'0 0.0
2017-Apr-24 14:58N 40°50' E 029°17'0 0.0
2017-Apr-24 14:28N 40°50' E 029°17'0 0.0
2017-Apr-24 13:28N 40°50' E 029°17'0 0.0
2017-Apr-24 12:58N 40°50' E 029°17'0 0.0
2017-Apr-24 12:28N 40°50' E 029°17'0 0.0
2017-Apr-24 11:58N 40°50' E 029°17'0 0.0
2017-Apr-24 11:28N 40°50' E 029°17'0 0.0
2017-Apr-24 10:58N 40°50' E 029°17'0 0.0
2017-Apr-24 10:28N 40°50' E 029°17'0 0.0
2017-Apr-24 09:58N 40°50' E 029°17'0 0.0
2017-Apr-24 09:28N 40°50' E 029°17'0 0.0
2017-Apr-24 08:40N 40°50' E 029°17'0 0.0
2017-Apr-24 08:28N 40°50' E 029°17'0 0.0
2017-Apr-24 07:58N 40°50' E 029°17'0 0.0
2017-Apr-24 07:28N 40°50' E 029°17'0 0.0
2017-Apr-24 06:58N 40°50' E 029°17'0 0.0
2017-Apr-24 06:28N 40°50' E 029°17'0 0.0
2017-Apr-24 05:52N 40°50' E 029°17'0 0.0
2017-Apr-24 05:28N 40°50' E 029°17'0 0.0
2017-Apr-24 04:58N 40°50' E 029°17'0 0.0
2017-Apr-24 04:28N 40°50' E 029°17'0 0.0
2017-Apr-24 03:46N 40°50' E 029°17'0 0.0
2017-Apr-24 03:28N 40°50' E 029°17'0 0.0
2017-Apr-24 02:58N 40°50' E 029°17'0 0.0
2017-Apr-24 02:22N 40°50' E 029°17'0 0.0
2017-Apr-24 01:52N 40°50' E 029°17'0 0.0
2017-Apr-24 01:28N 40°50' E 029°17'0 0.0
2017-Apr-24 00:52N 40°50' E 029°17'0 0.0
2017-Apr-24 00:28N 40°50' E 029°17'0 0.0
2017-Apr-23 23:58N 40°50' E 029°17'0 0.0
2017-Apr-23 23:28N 40°50' E 029°17'0 0.0
2017-Apr-23 22:58N 40°50' E 029°17'0 0.0
2017-Apr-23 22:28N 40°50' E 029°17'0 0.0
2017-Apr-23 21:58N 40°50' E 029°17'0 0.0
2017-Apr-23 21:28N 40°50' E 029°17'0 0.0
2017-Apr-23 20:58N 40°50' E 029°17'0 0.0
2017-Apr-23 20:28N 40°50' E 029°17'0 0.0
2017-Apr-23 19:58N 40°50' E 029°17'0 0.0
2017-Apr-23 19:28N 40°50' E 029°17'0 0.0
2017-Apr-23 18:58N 40°50' E 029°17'0 0.0
2017-Apr-23 18:22N 40°50' E 029°17'0 0.0
2017-Apr-23 17:58N 40°50' E 029°17'0 0.0
2017-Apr-23 17:28N 40°50' E 029°17'0 0.0
2017-Apr-23 16:58N 40°50' E 029°17'0 0.0
2017-Apr-23 16:22N 40°50' E 029°17'0 0.0
2017-Apr-23 15:58N 40°50' E 029°17'0 0.0
2017-Apr-23 15:28N 40°50' E 029°17'0 0.0
2017-Apr-23 14:58N 40°50' E 029°17'0 0.0
2017-Apr-23 14:28N 40°50' E 029°17'0 0.0
2017-Apr-23 13:28N 40°50' E 029°17'0 0.0
2017-Apr-23 12:52N 40°50' E 029°17'0 0.0
2017-Apr-23 12:28N 40°50' E 029°17'0 0.0
2017-Apr-23 11:58N 40°50' E 029°17'0 0.0
2017-Apr-23 11:28N 40°50' E 029°17'0 0.0
2017-Apr-23 10:58N 40°50' E 029°17'0 0.0
2017-Apr-23 10:28N 40°50' E 029°17'0 0.0
2017-Apr-23 09:58N 40°50' E 029°17'0 0.0
2017-Apr-23 09:28N 40°50' E 029°17'0 0.0
2017-Apr-23 08:58N 40°50' E 029°17'0 0.0
2017-Apr-23 08:28N 40°50' E 029°17'0 0.0
2017-Apr-23 07:52N 40°50' E 029°17'0 0.0
2017-Apr-23 07:28N 40°50' E 029°17'0 0.0
2017-Apr-23 06:58N 40°50' E 029°17'0 0.0
2017-Apr-23 06:28N 40°50' E 029°17'0 0.0
2017-Apr-23 05:58N 40°50' E 029°17'0 0.0
2017-Apr-23 05:16N 40°50' E 029°17'0 0.0
2017-Apr-23 04:58N 40°50' E 029°17'0 0.0
2017-Apr-23 04:28N 40°50' E 029°17'0 0.0
2017-Apr-23 03:58N 40°50' E 029°17'0 0.0
2017-Apr-23 03:28N 40°50' E 029°17'0 0.0
2017-Apr-23 02:52N 40°50' E 029°17'0 0.0
2017-Apr-23 02:28N 40°50' E 029°17'0 0.0
2017-Apr-23 01:58N 40°50' E 029°17'0 0.0
2017-Apr-23 01:28N 40°50' E 029°17'0 0.0
2017-Apr-23 00:52N 40°50' E 029°17'0 0.0
2017-Apr-23 00:28N 40°50' E 029°17'0 0.0
2017-Apr-22 23:58N 40°50' E 029°17'0 0.0
2017-Apr-22 23:28N 40°50' E 029°17'0 0.0
2017-Apr-22 22:58N 40°50' E 029°17'0 0.0
2017-Apr-22 22:28N 40°50' E 029°17'0 0.0
2017-Apr-22 21:58N 40°50' E 029°17'0 0.0
2017-Apr-22 21:28N 40°50' E 029°17'0 0.0
2017-Apr-22 20:58N 40°50' E 029°17'0 0.0
2017-Apr-22 20:22N 40°50' E 029°17'0 0.0
2017-Apr-22 19:58N 40°50' E 029°17'0 0.0
2017-Apr-22 19:28N 40°50' E 029°17'0 0.0
2017-Apr-22 18:58N 40°50' E 029°17'0 0.0
2017-Apr-22 18:28N 40°50' E 029°17'0 0.0
2017-Apr-22 17:58N 40°50' E 029°17'0 0.0
2017-Apr-22 17:25N 40°50' E 029°17'0 0.0
2017-Apr-22 16:55N 40°50' E 029°17'0 0.0
2017-Apr-22 16:19N 40°50' E 029°17'0 0.0
2017-Apr-22 15:58N 40°50' E 029°17'0 0.0
2017-Apr-22 15:28N 40°50' E 029°17'0 0.0
2017-Apr-22 14:58N 40°50' E 029°17'0 0.0
2017-Apr-22 14:28N 40°50' E 029°17'0 0.0
2017-Apr-22 13:25N 40°50' E 029°17'0 0.0
2017-Apr-22 12:55N 40°50' E 029°17'0 0.0
2017-Apr-22 12:19N 40°50' E 029°17'0 0.0
2017-Apr-22 11:49N 40°50' E 029°17'0 0.0
2017-Apr-22 11:25N 40°50' E 029°17'0 0.0
2017-Apr-22 10:49N 40°50' E 029°17'0 0.0
2017-Apr-22 10:19N 40°50' E 029°17'0 0.0
2017-Apr-22 09:55N 40°50' E 029°17'0 0.0
2017-Apr-22 09:25N 40°50' E 029°17'0 0.0
2017-Apr-22 08:55N 40°50' E 029°17'0 0.0
2017-Apr-22 08:25N 40°50' E 029°17'0 0.0
2017-Apr-22 07:55N 40°50' E 029°17'0 0.0
2017-Apr-22 07:07N 40°50' E 029°17'0 0.0
2017-Apr-22 06:55N 40°50' E 029°17'0 0.0
2017-Apr-22 06:25N 40°50' E 029°17'0 0.0
2017-Apr-22 05:55N 40°50' E 029°17'0 0.0
2017-Apr-22 05:25N 40°50' E 029°17'0 0.0
2017-Apr-22 04:55N 40°50' E 029°17'0 0.0
2017-Apr-22 04:19N 40°50' E 029°17'0 0.0
2017-Apr-22 03:55N 40°50' E 029°17'0 0.0
2017-Apr-22 03:19N 40°50' E 029°17'0 0.0
2017-Apr-22 02:49N 40°50' E 029°17'0 0.0
2017-Apr-22 02:19N 40°50' E 029°17'0 0.0
2017-Apr-22 01:55N 40°50' E 029°17'0 0.0
2017-Apr-22 01:25N 40°50' E 029°17'0 0.0
2017-Apr-22 00:55N 40°50' E 029°17'0 0.0
2017-Apr-22 00:25N 40°50' E 029°17'0 0.0
2017-Apr-21 23:55N 40°50' E 029°17'0 0.0
2017-Apr-21 23:19N 40°50' E 029°17'0 0.0
2017-Apr-21 22:55N 40°50' E 029°17'0 0.0
2017-Apr-21 22:25N 40°50' E 029°17'0 0.0
2017-Apr-21 21:49N 40°50' E 029°17'0 0.0
2017-Apr-21 21:25N 40°50' E 029°17'0 0.0
2017-Apr-21 20:55N 40°50' E 029°17'0 0.0
2017-Apr-21 20:25N 40°50' E 029°17'0 0.0
2017-Apr-21 19:55N 40°50' E 029°17'0 0.0
2017-Apr-21 19:25N 40°50' E 029°17'0 0.0
2017-Apr-21 18:55N 40°50' E 029°17'0 0.0
2017-Apr-21 18:25N 40°50' E 029°17'0 0.0
2017-Apr-21 17:55N 40°50' E 029°17'0 0.0
2017-Apr-21 17:25N 40°50' E 029°17'0 0.0
2017-Apr-21 16:55N 40°50' E 029°17'0 0.0
2017-Apr-21 16:25N 40°50' E 029°17'0 0.0
2017-Apr-21 15:55N 40°50' E 029°17'0 0.0
2017-Apr-21 15:25N 40°50' E 029°17'0 0.0
2017-Apr-21 14:55N 40°50' E 029°17'0 0.0
2017-Apr-21 14:25N 40°50' E 029°17'0 0.0
2017-Apr-21 13:25N 40°50' E 029°17'0 0.0
2017-Apr-21 12:55N 40°50' E 029°17'0 0.0
2017-Apr-21 12:25N 40°50' E 029°17'0 0.0
2017-Apr-21 11:55N 40°50' E 029°17'0 0.0
2017-Apr-21 11:25N 40°50' E 029°17'0 0.0
2017-Apr-21 10:49N 40°50' E 029°17'0 0.0
2017-Apr-21 10:25N 40°50' E 029°17'0 0.0
2017-Apr-21 09:49N 40°50' E 029°17'0 0.0
2017-Apr-21 09:25N 40°50' E 029°17'0 0.0
2017-Apr-21 08:55N 40°50' E 029°17'0 0.0
2017-Apr-21 08:25N 40°50' E 029°17'0 0.0
2017-Apr-21 07:49N 40°50' E 029°17'0 0.0
2017-Apr-21 07:25N 40°50' E 029°17'0 0.0
2017-Apr-21 06:55N 40°50' E 029°17'0 0.0
2017-Apr-21 06:25N 40°50' E 029°17'0 0.0
2017-Apr-21 05:55N 40°50' E 029°17'0 0.0
2017-Apr-21 05:25N 40°50' E 029°17'0 0.0
2017-Apr-21 04:55N 40°50' E 029°17'0 0.0
2017-Apr-21 04:25N 40°50' E 029°17'0 0.0
2017-Apr-21 03:55N 40°50' E 029°17'0 0.0
2017-Apr-21 03:25N 40°50' E 029°17'0 0.0
2017-Apr-21 02:49N 40°50' E 029°17'0 0.0
2017-Apr-21 02:19N 40°50' E 029°17'0 0.0
2017-Apr-21 01:55N 40°50' E 029°17'0 0.0
2017-Apr-21 01:25N 40°50' E 029°17'0 0.0
2017-Apr-21 00:55N 40°50' E 029°17'0 0.0
2017-Apr-21 00:25N 40°50' E 029°17'0 0.0
2017-Apr-20 23:55N 40°50' E 029°17'0 0.0
2017-Apr-20 23:25N 40°50' E 029°17'0 0.0
2017-Apr-20 22:55N 40°50' E 029°17'0 0.0
2017-Apr-20 22:25N 40°50' E 029°17'0 0.0
2017-Apr-20 21:49N 40°50' E 029°17'0 0.0
2017-Apr-20 21:25N 40°50' E 029°17'0 0.0
2017-Apr-20 20:55N 40°50' E 029°17'0 0.0
2017-Apr-20 20:25N 40°50' E 029°17'0 0.0
2017-Apr-20 19:55N 40°50' E 029°17'0 0.0
2017-Apr-20 19:13N 40°50' E 029°17'0 0.0
2017-Apr-20 18:55N 40°50' E 029°17'0 0.0
2017-Apr-20 18:25N 40°50' E 029°17'0 0.0
2017-Apr-20 17:55N 40°50' E 029°17'0 0.0
2017-Apr-20 17:19N 40°50' E 029°17'0 0.0
2017-Apr-20 16:55N 40°50' E 029°17'0 0.0
2017-Apr-20 16:25N 40°50' E 029°17'0 0.0
2017-Apr-20 15:55N 40°50' E 029°17'0 0.0
2017-Apr-20 15:25N 40°50' E 029°17'0 0.0
2017-Apr-20 14:55N 40°50' E 029°17'0 0.0
2017-Apr-20 13:55N 40°50' E 029°17'0 0.0
2017-Apr-20 13:25N 40°50' E 029°17'0 0.0
2017-Apr-20 12:55N 40°50' E 029°17'0 0.0
2017-Apr-20 12:25N 40°50' E 029°17'0 0.0
2017-Apr-20 11:55N 40°50' E 029°17'0 0.0
2017-Apr-20 11:25N 40°50' E 029°17'0 0.0
2017-Apr-20 10:55N 40°50' E 029°17'0 0.0
2017-Apr-20 10:25N 40°50' E 029°17'0 0.0
2017-Apr-20 09:55N 40°50' E 029°17'0 0.0
2017-Apr-20 09:25N 40°50' E 029°17'0 0.0
2017-Apr-20 08:55N 40°50' E 029°17'0 0.0
2017-Apr-20 08:25N 40°50' E 029°17'0 0.0
2017-Apr-20 07:55N 40°50' E 029°17'0 0.0
2017-Apr-20 07:25N 40°50' E 029°17'0 0.0
2017-Apr-20 06:55N 40°50' E 029°17'0 0.0
2017-Apr-20 06:25N 40°50' E 029°17'0 0.0
2017-Apr-20 05:55N 40°50' E 029°17'0 0.0
2017-Apr-20 05:25N 40°50' E 029°17'0 0.0
2017-Apr-20 04:55N 40°50' E 029°17'0 0.0
2017-Apr-20 04:25N 40°50' E 029°17'0 0.0
2017-Apr-20 03:55N 40°50' E 029°17'0 0.0
2017-Apr-20 03:25N 40°50' E 029°17'0 0.0
2017-Apr-20 02:55N 40°50' E 029°17'0 0.0
2017-Apr-20 02:25N 40°50' E 029°17'0 0.0
2017-Apr-20 01:55N 40°50' E 029°17'0 0.0
2017-Apr-20 01:25N 40°50' E 029°17'0 0.0
2017-Apr-20 00:55N 40°50' E 029°17'0 0.0
2017-Apr-20 00:25N 40°50' E 029°17'0 0.0
2017-Apr-19 23:55N 40°50' E 029°17'0 0.0
2017-Apr-19 23:25N 40°50' E 029°17'0 0.0
2017-Apr-19 22:55N 40°50' E 029°17'0 0.0
2017-Apr-19 22:25N 40°50' E 029°17'0 0.0
2017-Apr-19 21:55N 40°50' E 029°17'0 0.0
2017-Apr-19 21:25N 40°50' E 029°17'0 0.0
2017-Apr-19 20:55N 40°50' E 029°17'0 0.0
2017-Apr-19 20:25N 40°50' E 029°17'0 0.0
2017-Apr-19 19:55N 40°50' E 029°17'0 0.0
2017-Apr-19 19:25N 40°50' E 029°17'0 0.0
2017-Apr-19 18:49N 40°50' E 029°17'0 0.0
2017-Apr-19 18:07N 40°50' E 029°17'0 0.0
2017-Apr-19 17:55N 40°50' E 029°17'0 0.0
2017-Apr-19 17:25N 40°50' E 029°17'0 0.0
2017-Apr-19 16:49N 40°50' E 029°17'0 0.0
2017-Apr-19 16:25N 40°50' E 029°17'0 0.0
2017-Apr-19 15:55N 40°50' E 029°17'0 0.0
2017-Apr-19 15:25N 40°50' E 029°17'0 0.0
2017-Apr-19 14:55N 40°50' E 029°17'0 0.0
2017-Apr-19 14:25N 40°50' E 029°17'0 0.0
2017-Apr-19 13:25N 40°50' E 029°17'0 0.0
2017-Apr-19 12:55N 40°50' E 029°17'0 0.0
2017-Apr-19 12:25N 40°50' E 029°17'0 0.0
2017-Apr-19 11:55N 40°50' E 029°17'0 0.0
2017-Apr-19 11:25N 40°50' E 029°17'0 0.0
2017-Apr-19 10:49N 40°50' E 029°17'0 0.0
2017-Apr-19 10:13N 40°50' E 029°17'0 0.0
2017-Apr-19 09:55N 40°50' E 029°17'  

Dump ship's entire track history